createdAt,value
2023-10-23T00:01:42.426Z,3.15
2023-10-23T00:04:11.077Z,3.78
2023-10-23T00:06:38.760Z,2.92
2023-10-23T00:09:06.164Z,3.10
2023-10-23T00:11:33.534Z,3.13
2023-10-23T00:14:01.239Z,2.50
2023-10-23T00:16:28.606Z,2.80
2023-10-23T00:18:56.104Z,3.15
2023-10-23T00:21:23.626Z,3.97
2023-10-23T00:23:51.440Z,3.28
2023-10-23T00:26:19.227Z,3.20
2023-10-23T00:28:52.290Z,3.28
2023-10-23T00:31:19.542Z,3.13
2023-10-23T00:33:46.861Z,2.58
2023-10-23T00:36:14.293Z,3.10
2023-10-23T00:38:41.565Z,4.00
2023-10-23T00:41:09.770Z,3.20
2023-10-23T00:43:37.859Z,3.08
2023-10-23T00:46:13.659Z,3.75
2023-10-23T00:48:41.007Z,3.55
2023-10-23T00:51:11.188Z,3.72
2023-10-23T00:53:41.405Z,2.55
2023-10-23T00:56:11.600Z,3.22
2023-10-23T00:58:41.703Z,2.60
2023-10-23T01:01:14.069Z,3.10
2023-10-23T01:03:43.032Z,3.65
2023-10-23T01:06:11.686Z,2.90
2023-10-23T01:08:39.224Z,2.50
2023-10-23T01:11:06.795Z,2.35
2023-10-23T01:13:34.283Z,2.85
2023-10-23T01:16:01.693Z,3.00
2023-10-23T01:18:29.363Z,3.33
2023-10-23T01:20:56.937Z,2.63
2023-10-23T01:23:29.870Z,2.60
2023-10-23T01:25:57.168Z,3.58
2023-10-23T01:28:25.458Z,2.50
2023-10-23T01:30:52.824Z,2.85
2023-10-23T01:33:20.419Z,3.20
2023-10-23T01:35:48.145Z,2.50
2023-10-23T01:38:16.116Z,3.10
2023-10-23T01:40:43.552Z,2.97
2023-10-23T01:43:10.889Z,2.75
2023-10-23T01:45:38.229Z,2.72
2023-10-23T01:48:06.566Z,2.95
2023-10-23T01:50:34.666Z,3.03
2023-10-23T01:53:02.075Z,2.92
2023-10-23T01:55:29.343Z,3.08
2023-10-23T01:58:00.262Z,3.13
2023-10-23T02:00:27.751Z,3.47
2023-10-23T02:02:55.869Z,2.78
2023-10-23T02:05:23.265Z,2.70
2023-10-23T02:07:50.633Z,3.05
2023-10-23T02:10:17.938Z,3.33
2023-10-23T02:12:46.574Z,3.80
2023-10-23T02:15:14.731Z,3.50
2023-10-23T02:17:42.817Z,3.33
2023-10-23T02:20:11.089Z,3.40
2023-10-23T02:22:38.345Z,2.97
2023-10-23T02:25:06.292Z,3.05
2023-10-23T02:27:33.614Z,3.10
2023-10-23T02:30:01.142Z,3.08
2023-10-23T02:32:37.205Z,3.78
2023-10-23T02:35:19.645Z,2.80
2023-10-23T02:37:49.967Z,3.28
2023-10-23T02:40:25.240Z,3.33
2023-10-23T02:42:56.427Z,3.70
2023-10-23T02:45:33.516Z,3.35
2023-10-23T02:48:12.522Z,3.22
2023-10-23T02:50:43.320Z,3.75
2023-10-23T02:53:12.848Z,3.53
2023-10-23T02:55:44.241Z,3.72
2023-10-23T02:58:16.457Z,3.60
2023-10-23T03:00:54.571Z,3.38
2023-10-23T03:03:23.443Z,3.08
2023-10-23T03:05:51.877Z,3.28
2023-10-23T03:08:28.518Z,3.17
2023-10-23T03:11:00.139Z,3.42
2023-10-23T03:13:27.982Z,3.50
2023-10-23T03:15:58.570Z,3.45
2023-10-23T03:18:29.541Z,3.33
2023-10-23T03:21:03.682Z,3.72
2023-10-23T03:23:40.378Z,3.55
2023-10-23T03:26:21.687Z,3.60
2023-10-23T03:28:49.949Z,3.33
2023-10-23T03:31:38.888Z,3.60
2023-10-23T03:34:08.778Z,4.25
2023-10-23T03:36:46.442Z,3.97
2023-10-23T03:39:15.939Z,3.28
2023-10-23T03:41:53.936Z,4.63
2023-10-23T03:44:32.862Z,4.07
2023-10-23T03:47:09.808Z,3.80
2023-10-23T03:49:41.250Z,3.60
2023-10-23T03:52:19.671Z,4.00
2023-10-23T03:54:50.290Z,4.00
2023-10-23T03:57:29.490Z,4.15
2023-10-23T04:00:07.093Z,4.53
2023-10-23T04:02:43.935Z,4.93
2023-10-23T04:05:12.426Z,4.07
2023-10-23T04:07:54.660Z,4.63
2023-10-23T04:10:24.984Z,5.07
2023-10-23T04:13:01.863Z,3.67
2023-10-23T04:15:30.341Z,5.10
2023-10-23T04:18:09.144Z,8.27
2023-10-23T04:20:45.274Z,6.55
2023-10-23T04:23:16.692Z,16.38
2023-10-23T04:25:58.613Z,18.23
2023-10-23T04:28:37.134Z,16.50
2023-10-23T04:31:06.671Z,15.40
2023-10-23T04:33:36.169Z,12.82
2023-10-23T04:36:07.863Z,10.93
2023-10-23T04:38:38.407Z,6.10
2023-10-23T04:41:10.224Z,4.40
2023-10-23T04:43:38.295Z,5.15
2023-10-23T04:46:19.378Z,8.02
2023-10-23T04:48:51.222Z,6.28
2023-10-23T04:51:22.568Z,6.03
2023-10-23T04:53:53.643Z,6.28
2023-10-23T04:56:22.074Z,6.07
2023-10-23T04:58:59.785Z,5.30
2023-10-23T05:01:30.464Z,5.22
2023-10-23T05:04:07.543Z,5.10
2023-10-23T05:06:38.216Z,9.32
2023-10-23T05:09:07.145Z,6.57
2023-10-23T05:11:40.160Z,6.25
2023-10-23T05:14:16.818Z,5.05
2023-10-23T05:16:45.471Z,5.30
2023-10-23T05:19:18.989Z,4.50
2023-10-23T05:21:49.432Z,4.97
2023-10-23T05:24:18.206Z,5.13
2023-10-23T05:26:46.078Z,4.57
2023-10-23T05:29:26.817Z,5.80
2023-10-23T05:32:05.297Z,5.35
2023-10-23T05:34:35.157Z,5.85
2023-10-23T05:37:03.603Z,5.97
2023-10-23T05:39:38.824Z,5.13
2023-10-23T05:42:12.636Z,6.07
2023-10-23T05:44:43.157Z,4.50
2023-10-23T05:47:20.964Z,5.50
2023-10-23T05:49:51.281Z,6.07
2023-10-23T05:52:21.035Z,5.72
2023-10-23T05:54:55.848Z,6.32
2023-10-23T05:57:27.364Z,6.75
2023-10-23T06:00:04.157Z,5.97
2023-10-23T06:02:37.832Z,5.25
2023-10-23T06:05:10.811Z,5.10
2023-10-23T06:07:41.695Z,5.18
2023-10-23T06:10:12.267Z,4.32
2023-10-23T06:12:48.443Z,4.88
2023-10-23T06:15:21.976Z,4.32
2023-10-23T06:17:53.675Z,4.47
2023-10-23T06:20:22.616Z,4.60
2023-10-23T06:22:59.921Z,5.10
2023-10-23T06:25:35.862Z,5.15
2023-10-23T06:28:21.170Z,4.95
2023-10-23T06:30:59.792Z,4.20
2023-10-23T06:33:28.898Z,4.28
2023-10-23T06:36:07.750Z,5.35
2023-10-23T06:38:38.980Z,5.05
2023-10-23T06:41:08.641Z,14.32
2023-10-23T06:43:38.879Z,16.30
2023-10-23T06:46:06.619Z,6.55
2023-10-23T06:48:50.982Z,5.07
2023-10-23T06:51:21.401Z,5.25
2023-10-23T06:54:01.436Z,4.93
2023-10-23T06:56:38.803Z,5.22
2023-10-23T06:59:10.085Z,5.40
2023-10-23T07:01:44.881Z,5.20
2023-10-23T07:04:20.331Z,5.63
2023-10-23T07:06:48.919Z,4.95
2023-10-23T07:09:26.365Z,4.90
2023-10-23T07:11:55.594Z,4.85
2023-10-23T07:14:35.098Z,5.03
2023-10-23T07:17:05.214Z,4.22
2023-10-23T07:19:42.191Z,5.18
2023-10-23T07:22:18.898Z,5.25
2023-10-23T07:24:57.246Z,4.82
2023-10-23T07:27:30.101Z,4.65
2023-10-23T07:30:15.152Z,4.75
2023-10-23T07:32:50.468Z,5.28
2023-10-23T07:35:22.498Z,4.22
2023-10-23T07:37:57.368Z,5.28
2023-10-23T07:40:38.082Z,5.05
2023-10-23T07:43:16.653Z,5.50
2023-10-23T07:46:04.066Z,5.35
2023-10-23T07:48:42.860Z,4.70
2023-10-23T07:51:16.350Z,4.90
2023-10-23T07:53:47.277Z,4.97
2023-10-23T07:56:27.041Z,5.30
2023-10-23T07:59:04.745Z,5.25
2023-10-23T08:01:33.674Z,7.72
2023-10-23T08:04:08.133Z,4.97
2023-10-23T08:06:39.579Z,2.88
2023-10-23T08:09:14.382Z,3.50
2023-10-23T08:11:46.263Z,3.70
2023-10-23T08:14:18.129Z,4.82
2023-10-23T08:16:49.372Z,4.22
2023-10-23T08:19:19.289Z,5.20
2023-10-23T08:21:51.073Z,4.15
2023-10-23T08:24:23.483Z,3.45
2023-10-23T08:27:00.524Z,4.00
2023-10-23T08:29:39.277Z,3.97
2023-10-23T08:32:23.081Z,2.90
2023-10-23T08:35:02.309Z,2.45
2023-10-23T08:37:34.117Z,2.78
2023-10-23T08:40:05.671Z,3.10
2023-10-23T08:42:44.822Z,2.38
2023-10-23T08:45:19.740Z,3.40
2023-10-23T08:48:10.408Z,2.78
2023-10-23T08:50:42.163Z,3.20
2023-10-23T08:53:14.276Z,3.20
2023-10-23T08:55:52.778Z,2.83
2023-10-23T08:58:30.745Z,3.00
2023-10-23T09:01:09.413Z,3.05
2023-10-23T09:04:02.497Z,2.85
2023-10-23T09:06:32.806Z,3.20
2023-10-23T09:09:10.843Z,3.15
2023-10-23T09:11:50.405Z,2.75
2023-10-23T09:14:35.832Z,3.55
2023-10-23T09:17:11.693Z,2.65
2023-10-23T09:19:43.831Z,2.70
2023-10-23T09:22:21.117Z,2.40
2023-10-23T09:24:59.449Z,3.15
2023-10-23T09:27:30.533Z,2.90
2023-10-23T09:30:09.285Z,2.22
2023-10-23T09:32:43.546Z,3.17
2023-10-23T09:35:20.356Z,2.67
2023-10-23T09:37:51.940Z,3.08
2023-10-23T09:40:30.696Z,2.60
2023-10-23T09:43:02.898Z,2.42
2023-10-23T09:45:35.378Z,3.30
2023-10-23T09:48:07.910Z,2.00
2023-10-23T09:50:40.865Z,2.95
2023-10-23T09:53:13.217Z,2.53
2023-10-23T09:55:54.077Z,2.40
2023-10-23T09:58:25.601Z,2.75
2023-10-23T10:00:58.844Z,2.15
2023-10-23T10:03:45.995Z,1.65
2023-10-23T10:06:18.665Z,2.13
2023-10-23T10:08:52.228Z,2.07
2023-10-23T10:11:23.849Z,2.20
2023-10-23T10:14:02.730Z,2.22
2023-10-23T10:16:44.914Z,2.13
2023-10-23T10:19:21.153Z,1.50
2023-10-23T10:22:18.803Z,1.50
2023-10-23T10:24:56.500Z,1.60
2023-10-23T10:27:29.901Z,2.00
2023-10-23T10:30:12.682Z,2.08
2023-10-23T10:33:34.148Z,1.92
2023-10-23T10:35:41.593Z,2.00
2023-10-23T10:38:14.800Z,2.17
2023-10-23T10:41:08.214Z,2.30
2023-10-23T10:43:45.325Z,1.67
2023-10-23T10:46:33.248Z,2.35
2023-10-23T10:49:05.494Z,2.33
2023-10-23T10:51:43.087Z,1.80
2023-10-23T10:54:20.178Z,1.90
2023-10-23T10:56:53.578Z,1.90
2023-10-23T10:59:31.899Z,2.30
2023-10-23T11:02:04.641Z,2.63
2023-10-23T11:04:53.556Z,2.55
2023-10-23T11:07:37.768Z,3.22
2023-10-23T11:10:14.546Z,2.85
2023-10-23T11:12:48.614Z,3.35
2023-10-23T11:15:26.348Z,2.85
2023-10-23T11:18:06.289Z,3.50
2023-10-23T11:20:37.979Z,2.80
2023-10-23T11:23:06.962Z,3.42
2023-10-23T11:25:45.333Z,3.03
2023-10-23T11:28:15.778Z,3.67
2023-10-23T11:30:56.729Z,3.13
2023-10-23T11:33:26.940Z,2.90
2023-10-23T11:35:56.849Z,2.70
2023-10-23T11:38:28.481Z,3.33
2023-10-23T11:40:59.018Z,3.00
2023-10-23T11:43:34.352Z,2.65
2023-10-23T11:46:07.249Z,3.10
2023-10-23T11:48:40.029Z,2.53
2023-10-23T11:51:14.066Z,2.90
2023-10-23T11:53:49.884Z,3.10
2023-10-23T11:58:57.137Z,2.97
2023-10-23T12:01:27.594Z,2.78
2023-10-23T12:03:57.256Z,2.70
2023-10-23T12:06:27.006Z,2.45
2023-10-23T12:08:58.739Z,3.13
2023-10-23T12:11:27.386Z,2.75
2023-10-23T12:14:03.340Z,2.63
2023-10-23T12:16:34.605Z,2.13
2023-10-23T12:19:17.759Z,2.67
2023-10-23T12:21:48.523Z,2.30
2023-10-23T12:24:26.024Z,2.85
2023-10-23T12:26:57.896Z,2.90
2023-10-23T12:29:31.056Z,2.95
2023-10-23T12:32:05.623Z,2.60
2023-10-23T12:34:45.631Z,2.58
2023-10-23T12:37:22.324Z,2.47
2023-10-23T12:39:51.615Z,3.20
2023-10-23T12:42:21.945Z,2.50
2023-10-23T12:44:59.258Z,2.30
2023-10-23T12:47:28.560Z,2.65
2023-10-23T12:50:02.410Z,2.60
2023-10-23T12:52:36.499Z,2.47
2023-10-23T12:55:08.497Z,2.47
2023-10-23T12:57:39.388Z,2.25
2023-10-23T13:00:17.439Z,1.90
2023-10-23T13:02:47.254Z,1.75
2023-10-23T13:05:18.060Z,2.40
2023-10-23T13:07:52.121Z,2.03
2023-10-23T13:10:24.347Z,1.95
2023-10-23T13:12:57.548Z,1.83
2023-10-23T13:15:27.332Z,2.28
2023-10-23T13:17:58.823Z,1.92
2023-10-23T13:20:51.302Z,2.17
2023-10-23T13:23:31.831Z,3.00
2023-10-23T13:26:13.337Z,3.35
2023-10-23T13:28:49.352Z,3.00
2023-10-23T13:31:17.682Z,2.55
2023-10-23T13:33:47.867Z,3.13
2023-10-23T13:36:18.658Z,3.13
2023-10-23T13:38:47.104Z,2.92
2023-10-23T13:41:17.408Z,2.90
2023-10-23T13:43:54.531Z,4.20
2023-10-23T13:46:26.990Z,3.72
2023-10-23T13:49:00.671Z,3.65
2023-10-23T13:51:38.395Z,3.05
2023-10-23T13:54:17.283Z,3.40
2023-10-23T13:56:47.391Z,2.17
2023-10-23T13:59:17.572Z,2.75
2023-10-23T14:01:48.065Z,2.40
2023-10-23T14:04:18.134Z,2.60
2023-10-23T14:09:40.733Z,2.33
2023-10-23T14:12:15.902Z,2.05
2023-10-23T14:14:45.041Z,2.63
2023-10-23T14:17:24.591Z,2.63
2023-10-23T14:20:04.489Z,2.38
2023-10-23T14:22:36.400Z,3.15
2023-10-23T14:25:11.379Z,3.83
2023-10-23T14:27:42.790Z,8.60
2023-10-23T14:30:19.855Z,4.95
2023-10-23T14:32:52.620Z,5.97
2023-10-23T14:35:23.943Z,5.13
2023-10-23T14:37:55.097Z,5.15
2023-10-23T14:40:26.438Z,5.68
2023-10-23T14:43:05.739Z,8.27
2023-10-23T14:45:41.016Z,5.75
2023-10-23T14:48:12.191Z,4.60
2023-10-23T14:50:52.167Z,8.32
2023-10-23T14:53:20.686Z,5.20
2023-10-23T14:55:55.159Z,3.15
2023-10-23T14:58:26.460Z,6.20
2023-10-23T15:00:56.802Z,4.53
2023-10-23T15:03:33.012Z,3.97
2023-10-23T15:06:12.449Z,4.28
2023-10-23T15:08:43.403Z,3.05
2023-10-23T15:11:23.268Z,4.53
2023-10-23T15:14:01.256Z,3.90
2023-10-23T15:16:36.587Z,5.55
2023-10-23T15:19:08.572Z,5.25
2023-10-23T15:21:39.150Z,4.90
2023-10-23T15:24:22.140Z,4.70
2023-10-23T15:26:51.567Z,6.43
2023-10-23T15:29:24.405Z,8.60
2023-10-23T15:32:01.134Z,8.75
2023-10-23T15:34:37.820Z,9.40
2023-10-23T15:37:15.118Z,9.43
2023-10-23T15:39:48.587Z,10.70
2023-10-23T15:42:26.434Z,12.05
2023-10-23T15:45:01.433Z,14.07
2023-10-23T15:47:41.611Z,11.80
2023-10-23T15:50:10.058Z,8.82
2023-10-23T15:52:41.241Z,6.72
2023-10-23T15:55:10.312Z,4.68
2023-10-23T15:57:43.176Z,4.32
2023-10-23T16:00:15.590Z,5.38
2023-10-23T16:02:43.043Z,4.47
2023-10-23T16:05:11.254Z,3.55
2023-10-23T16:07:44.362Z,9.63
2023-10-23T16:10:15.610Z,9.13
2023-10-23T16:12:55.165Z,4.85
2023-10-23T16:15:31.398Z,4.95
2023-10-23T16:18:08.680Z,4.63
2023-10-23T16:20:39.417Z,4.15
2023-10-23T16:23:15.641Z,4.75
2023-10-23T16:25:48.638Z,7.03
2023-10-23T16:28:20.898Z,6.90
2023-10-23T16:30:52.014Z,4.45
2023-10-23T16:33:24.501Z,3.47
2023-10-23T16:35:53.179Z,4.50
2023-10-23T16:38:22.933Z,4.25
2023-10-23T16:40:55.081Z,4.03
2023-10-23T16:43:26.250Z,4.43
2023-10-23T16:45:56.594Z,3.95
2023-10-23T16:48:34.130Z,5.63
2023-10-23T16:51:06.530Z,3.90
2023-10-23T16:53:47.042Z,3.38
2023-10-23T16:56:17.275Z,3.50
2023-10-23T16:58:46.172Z,4.43
2023-10-23T17:01:15.397Z,3.97
2023-10-23T17:03:47.787Z,4.40
2023-10-23T17:06:23.968Z,3.85
2023-10-23T17:08:53.832Z,6.68
2023-10-23T17:11:24.750Z,6.25
2023-10-23T17:13:56.691Z,4.40
2023-10-23T17:16:26.686Z,4.05
2023-10-23T17:18:57.166Z,5.47
2023-10-23T17:21:26.948Z,8.00
2023-10-23T17:23:57.669Z,7.43
2023-10-23T17:26:29.525Z,8.18
2023-10-23T17:29:01.025Z,5.60
2023-10-23T17:31:34.736Z,18.75
2023-10-23T17:34:11.631Z,11.85
2023-10-23T17:36:43.515Z,7.72
2023-10-23T17:39:14.553Z,8.73
2023-10-23T17:41:50.832Z,6.43
2023-10-23T17:44:24.289Z,5.90
2023-10-23T17:46:55.179Z,13.18
2023-10-23T17:49:26.343Z,19.30
2023-10-23T17:51:57.894Z,11.60
2023-10-23T17:54:27.433Z,10.88
2023-10-23T17:56:57.518Z,6.55
2023-10-23T17:59:29.297Z,14.95
2023-10-23T18:01:59.616Z,11.73
2023-10-23T18:04:40.389Z,5.97
2023-10-23T18:07:19.237Z,5.63
2023-10-23T18:09:52.565Z,18.85
2023-10-23T18:12:37.422Z,11.75
2023-10-23T18:15:10.250Z,24.20
2023-10-23T18:17:41.330Z,9.15
2023-10-23T18:20:14.474Z,8.85
2023-10-23T18:22:46.538Z,6.43
2023-10-23T18:25:25.629Z,7.10
2023-10-23T18:27:57.665Z,17.60
2023-10-23T18:30:41.283Z,16.23
2023-10-23T18:33:13.925Z,8.80
2023-10-23T18:35:42.831Z,5.97
2023-10-23T18:38:22.090Z,7.53
2023-10-23T18:40:51.650Z,6.85
2023-10-23T18:43:27.372Z,11.93
2023-10-23T18:46:04.697Z,16.77
2023-10-23T18:48:37.856Z,16.20
2023-10-23T18:51:12.964Z,10.38
2023-10-23T18:53:47.094Z,15.00
2023-10-23T18:56:28.993Z,7.53
2023-10-23T18:58:58.901Z,7.40
2023-10-23T19:01:37.023Z,7.25
2023-10-23T19:04:06.409Z,7.20
2023-10-23T19:06:44.383Z,9.43
2023-10-23T19:09:25.319Z,8.02
2023-10-23T19:12:06.119Z,8.15
2023-10-23T19:14:46.821Z,10.45
2023-10-23T19:17:39.796Z,10.82
2023-10-23T19:20:22.281Z,26.33
2023-10-23T19:22:55.160Z,15.02
2023-10-23T19:25:33.661Z,11.90
2023-10-23T19:28:07.429Z,11.70
2023-10-23T19:30:38.791Z,8.90
2023-10-23T19:33:16.426Z,7.45
2023-10-23T19:35:54.056Z,8.23
2023-10-23T19:38:22.994Z,7.30
2023-10-23T19:40:55.106Z,8.00
2023-10-23T19:43:49.007Z,7.53
2023-10-23T19:46:19.617Z,7.82
2023-10-23T19:48:51.071Z,11.52
2023-10-23T19:51:22.292Z,8.13
2023-10-23T19:54:00.028Z,7.60
2023-10-23T19:56:43.036Z,7.10
2023-10-23T19:59:14.389Z,7.78
2023-10-23T20:01:45.171Z,7.70
2023-10-23T20:04:15.126Z,7.95
2023-10-23T20:06:47.743Z,7.53
2023-10-23T20:09:19.126Z,7.38
2023-10-23T20:11:59.438Z,7.35
2023-10-23T20:14:30.230Z,7.93
2023-10-23T20:17:07.672Z,14.88
2023-10-23T20:19:42.405Z,10.48
2023-10-23T20:22:14.109Z,7.82
2023-10-23T20:24:45.354Z,8.02
2023-10-23T20:27:15.845Z,8.25
2023-10-23T20:29:53.064Z,8.18
2023-10-23T20:32:35.168Z,7.43
2023-10-23T20:35:08.991Z,7.55
2023-10-23T20:37:42.986Z,8.18
2023-10-23T20:40:19.145Z,8.20
2023-10-23T20:42:50.198Z,9.05
2023-10-23T20:45:27.165Z,8.60
2023-10-23T20:48:02.684Z,7.57
2023-10-23T20:50:40.091Z,9.32
2023-10-23T20:53:19.032Z,9.13
2023-10-23T20:55:47.631Z,8.43
2023-10-23T20:58:19.372Z,9.15
2023-10-23T21:00:49.820Z,9.60
2023-10-23T21:03:27.658Z,8.98
2023-10-23T21:06:04.689Z,9.65
2023-10-23T21:08:41.763Z,8.07
2023-10-23T21:11:11.026Z,10.15
2023-10-23T21:13:40.388Z,9.45
2023-10-23T21:16:11.660Z,7.85
2023-10-23T21:18:49.416Z,14.23
2023-10-23T21:21:28.233Z,9.45
2023-10-23T21:23:59.132Z,6.32
2023-10-23T21:26:29.150Z,5.90
2023-10-23T21:29:23.819Z,5.68
2023-10-23T21:31:54.133Z,5.63
2023-10-23T21:34:26.007Z,5.85
2023-10-23T21:36:56.300Z,4.38
2023-10-23T21:39:32.494Z,4.78
2023-10-23T21:42:09.935Z,3.90
2023-10-23T21:44:42.128Z,4.00
2023-10-23T21:47:23.189Z,3.67
2023-10-23T21:50:03.910Z,4.57
2023-10-23T21:52:41.427Z,3.67
2023-10-23T21:55:19.131Z,3.15
2023-10-23T21:57:50.174Z,3.95
2023-10-23T22:00:34.588Z,3.85
2023-10-23T22:03:06.234Z,3.30
2023-10-23T22:05:41.782Z,3.22
2023-10-23T22:10:58.225Z,3.42
2023-10-23T22:13:31.951Z,3.03
2023-10-23T22:16:04.028Z,3.38
2023-10-23T22:18:42.077Z,6.85
2023-10-23T22:21:21.905Z,4.93
2023-10-23T22:24:01.079Z,3.30
2023-10-23T22:26:36.047Z,3.40
2023-10-23T22:29:03.896Z,3.15
2023-10-23T22:31:41.289Z,3.75
2023-10-23T22:34:12.225Z,3.00
2023-10-23T22:36:49.319Z,3.55
2023-10-23T22:39:45.372Z,3.30
2023-10-23T22:42:15.914Z,4.13
2023-10-23T22:44:48.782Z,3.88
2023-10-23T22:47:20.001Z,2.97
2023-10-23T22:49:50.929Z,4.00
2023-10-23T22:52:22.435Z,3.78
2023-10-23T22:54:58.570Z,3.97
2023-10-23T22:57:30.131Z,3.78
2023-10-23T23:00:09.884Z,3.65
2023-10-23T23:02:42.358Z,3.47
2023-10-23T23:05:13.997Z,3.55
2023-10-23T23:07:45.093Z,3.88
2023-10-23T23:10:14.382Z,4.00
2023-10-23T23:12:48.824Z,4.05
2023-10-23T23:15:23.394Z,4.07
2023-10-23T23:18:24.319Z,4.07
2023-10-23T23:21:08.503Z,4.70
2023-10-23T23:23:39.234Z,4.28
2023-10-23T23:26:15.412Z,3.83
2023-10-23T23:28:43.285Z,4.05
2023-10-23T23:31:22.051Z,4.22
2023-10-23T23:33:52.942Z,4.32
2023-10-23T23:36:25.793Z,4.05
2023-10-23T23:39:03.212Z,3.88
2023-10-23T23:41:43.042Z,3.95
2023-10-23T23:44:11.800Z,4.07
2023-10-23T23:46:42.635Z,4.18
2023-10-23T23:49:11.963Z,3.88
2023-10-23T23:51:42.769Z,3.95
2023-10-23T23:54:12.825Z,3.80
2023-10-23T23:56:43.965Z,4.10
2023-10-23T23:59:20.879Z,3.78
